Time;durP1;ratioP1;P1;durP2;ratioP2;P2;SDS_P1;SDS_P2;PMS_P1;PMS_P2;Temp;Humidity;BMP_temperature;BMP_pressure;BME280_temperature;BME280_humidity;BME280_pressure;Samples;Min_cycle;Max_cycle;Signal;HPM_P1;HPM_P2
2023/05/04 06:32:57;;;;;;;18.50;11.43;;;11.50;99.90;;;;;;6257769;23;20397;-75
2023/05/04 06:35:59;;;;;;;16.70;11.20;;;11.60;99.90;;;;;;6157486;28;20425;-76
2023/05/04 06:39:01;;;;;;;17.35;11.70;;;11.70;99.90;;;;;;6153660;28;20047;-76
2023/05/04 06:42:03;;;;;;;18.35;11.00;;;11.80;99.90;;;;;;6157605;28;20052;-75
2023/05/04 06:45:07;;;;;;;20.00;11.95;;;11.80;99.90;;;;;;6155739;28;20053;-75
2023/05/04 06:48:11;;;;;;;17.27;11.65;;;12.00;99.90;;;;;;6157913;28;20055;-75
2023/05/04 06:51:13;;;;;;;19.27;11.77;;;12.10;99.90;;;;;;6156586;28;20134;-76
2023/05/04 06:54:15;;;;;;;17.70;11.90;;;12.20;99.90;;;;;;6155123;28;20054;-75
2023/05/04 06:57:17;;;;;;;20.48;13.18;;;12.30;99.90;;;;;;6154824;28;20047;-76
2023/05/04 07:00:19;;;;;;;20.83;13.10;;;12.30;99.90;;;;;;6154492;28;20051;-76
2023/05/04 07:03:22;;;;;;;18.00;12.45;;;12.40;99.90;;;;;;6155630;28;20044;-75
2023/05/04 07:06:25;;;;;;;19.48;12.98;;;12.50;99.90;;;;;;6154829;28;20481;-76
2023/05/04 07:09:27;;;;;;;19.75;13.30;;;12.60;99.90;;;;;;6154554;28;20408;-77
2023/05/04 07:12:29;;;;;;;21.48;12.73;;;12.70;99.90;;;;;;6154497;28;20066;-76
2023/05/04 07:15:32;;;;;;;18.20;12.55;;;12.70;99.90;;;;;;6154373;28;20053;-75
2023/05/04 07:18:37;;;;;;;19.05;12.27;;;12.80;99.90;;;;;;6154580;28;20054;-76
2023/05/04 07:21:39;;;;;;;19.48;13.55;;;12.90;99.90;;;;;;6154312;28;20552;-76
2023/05/04 07:24:41;;;;;;;18.85;13.23;;;13.00;99.90;;;;;;6154438;28;20062;-76
2023/05/04 07:27:43;;;;;;;19.38;13.02;;;13.00;99.90;;;;;;6154121;28;20043;-75
2023/05/04 07:30:45;;;;;;;21.47;13.43;;;13.20;99.90;;;;;;6153028;28;20519;-75
2023/05/04 07:33:49;;;;;;;18.13;12.90;;;13.30;99.90;;;;;;6153158;28;20103;-76
2023/05/04 07:36:51;;;;;;;;;;;13.40;99.90;;;;;;6154482;28;20055;-76
2023/05/04 07:39:53;;;;;;;17.65;11.95;;;13.50;99.90;;;;;;6153961;29;19922;-75
2023/05/04 07:42:55;;;;;;;17.40;12.60;;;13.60;99.90;;;;;;6153946;28;20404;-75
2023/05/04 07:45:57;;;;;;;19.77;13.13;;;13.70;99.90;;;;;;6153838;28;20386;-76
2023/05/04 07:49:00;;;;;;;16.48;12.25;;;13.80;99.90;;;;;;6153593;28;20047;-76
2023/05/04 07:52:03;;;;;;;16.50;12.27;;;13.90;99.90;;;;;;6153757;28;20051;-76
2023/05/04 07:55:06;;;;;;;17.52;12.00;;;14.00;99.90;;;;;;6153489;28;20054;-76
2023/05/04 07:58:09;;;;;;;16.75;11.68;;;14.10;99.90;;;;;;6153191;28;20050;-76
2023/05/04 08:01:11;;;;;;;18.17;11.70;;;14.20;99.90;;;;;;6153370;28;20047;-75
2023/05/04 08:04:14;;;;;;;16.25;10.88;;;14.30;99.90;;;;;;6153214;28;20055;-76
2023/05/04 08:07:17;;;;;;;15.60;11.00;;;14.40;99.90;;;;;;6153352;28;20043;-76
2023/05/04 08:10:19;;;;;;;18.85;11.38;;;14.60;99.90;;;;;;6153430;28;20179;-76
2023/05/04 08:13:21;;;;;;;14.35;10.90;;;14.60;99.90;;;;;;6154005;28;20051;-76
2023/05/04 08:16:23;;;;;;;14.52;10.43;;;14.70;99.90;;;;;;6155376;28;20048;-76
2023/05/04 08:19:26;;;;;;;16.25;10.63;;;14.80;99.60;;;;;;6154327;28;20051;-75
2023/05/04 08:22:28;;;;;;;14.85;10.23;;;14.90;99.60;;;;;;6153443;28;20051;-76
2023/05/04 08:25:30;;;;;;;13.07;9.77;;;15.00;99.00;;;;;;6153421;28;20404;-74
2023/05/04 08:28:39;;;;;;;13.02;9.55;;;15.10;98.80;;;;;;6153715;28;20063;-74
2023/05/04 08:31:41;;;;;;;14.52;9.73;;;15.10;98.50;;;;;;6154315;28;20070;-76
2023/05/04 08:34:44;;;;;;;14.23;9.65;;;15.20;98.40;;;;;;6153244;28;20047;-76
2023/05/04 08:37:48;;;;;;;14.20;8.90;;;15.30;97.90;;;;;;6153861;28;20043;-76
2023/05/04 08:40:50;;;;;;;12.10;8.85;;;15.40;97.20;;;;;;6151772;29;20481;-76
2023/05/04 08:43:52;;;;;;;13.57;9.20;;;15.50;97.10;;;;;;6152916;28;20047;-74
2023/05/04 08:46:55;;;;;;;10.40;6.10;;;15.60;96.60;;;;;;6152744;28;20621;-71
2023/05/04 08:49:58;;;;;;;12.95;7.30;;;16.60;97.70;;;;;;6131548;28;20056;-73
2023/05/04 08:53:02;;;;;;;8.30;5.70;;;16.40;94.70;;;;;;6126314;29;20059;-72
2023/05/04 08:56:08;;;;;;;7.35;4.90;;;16.40;92.10;;;;;;6126176;29;20056;-72
2023/05/04 08:59:19;;;;;;;8.00;4.90;;;16.40;94.20;;;;;;6126386;29;20055;-73
2023/05/04 09:02:23;;;;;;;6.60;4.05;;;16.50;92.50;;;;;;6127192;29;20492;-72
2023/05/04 09:05:28;;;;;;;5.72;3.65;;;16.70;90.70;;;;;;6147243;28;20074;-72
2023/05/04 09:08:30;;;;;;;6.70;3.33;;;17.00;87.90;;;;;;6151982;28;20156;-73
2023/05/04 09:11:32;;;;;;;7.35;3.60;;;17.20;89.40;;;;;;6139129;29;20051;-76
2023/05/04 09:14:35;;;;;;;6.50;3.38;;;17.30;83.50;;;;;;6140786;28;20385;-72
2023/05/04 09:17:37;;;;;;;6.05;3.55;;;17.40;81.20;;;;;;6172821;28;20055;-73
2023/05/04 09:20:48;;;;;;;4.63;3.03;;;17.60;82.80;;;;;;6152353;28;20066;-73
2023/05/04 09:23:51;;;;;;;5.18;3.28;;;17.80;82.80;;;;;;6148170;28;20489;-72
2023/05/04 09:26:52;;;;;;;5.60;3.40;;;17.90;82.60;;;;;;6147915;28;20066;-73
2023/05/04 09:29:54;;;;;;;4.97;3.15;;;18.00;81.60;;;;;;6146867;28;20081;-73
2023/05/04 09:32:56;;;;;;;7.43;3.38;;;18.00;75.70;;;;;;6146629;28;20067;-73
2023/05/04 09:36:14;;;;;;;4.72;3.25;;;18.00;74.60;;;;;;6148144;28;20043;-74
2023/05/04 09:39:16;;;;;;;4.72;3.05;;;18.00;72.90;;;;;;6148464;28;20415;-75
2023/05/04 09:42:19;;;;;;;6.45;2.80;;;18.10;73.30;;;;;;6148495;28;20051;-75
2023/05/04 09:45:21;;;;;;;4.80;2.80;;;18.20;74.10;;;;;;6131563;28;20048;-74
2023/05/04 09:48:27;;;;;;;5.55;2.90;;;18.30;70.20;;;;;;6124486;29;20051;-75
2023/05/04 09:51:31;;;;;;;5.65;2.95;;;18.40;70.50;;;;;;6150476;28;20043;-75
2023/05/04 09:54:36;;;;;;;4.28;2.55;;;18.50;69.30;;;;;;6148689;28;20051;-75
2023/05/04 09:57:40;;;;;;;6.20;3.10;;;18.50;69.00;;;;;;6125614;28;20621;-73
2023/05/04 10:00:44;;;;;;;5.18;2.67;;;18.50;68.60;;;;;;6124381;29;20055;-75
2023/05/04 10:03:46;;;;;;;4.60;2.70;;;18.60;69.30;;;;;;6124360;29;20144;-75
2023/05/04 10:06:49;;;;;;;5.25;3.00;;;18.70;70.30;;;;;;6123925;29;20179;-74
2023/05/04 10:09:52;;;;;;;6.38;2.67;;;18.70;69.50;;;;;;6126730;29;20062;-74
2023/05/04 10:12:54;;;;;;;5.90;2.97;;;18.80;65.90;;;;;;6124673;29;20055;-76
2023/05/04 10:16:11;;;;;;;10.23;3.10;;;18.80;66.00;;;;;;6124372;29;20083;-76
2023/05/04 10:19:40;;;;;;;4.32;2.92;;;18.90;64.30;;;;;;6126458;29;20078;-77
2023/05/04 10:23:06;;;;;;;5.90;3.40;;;18.90;64.70;;;;;;6145935;28;20057;-76
2023/05/04 10:26:41;;;;;;;5.57;2.97;;;18.90;64.20;;;;;;6160169;28;20047;-76
2023/05/04 10:29:49;;;;;;;5.78;3.10;;;19.00;63.90;;;;;;6177408;28;20423;-76
2023/05/04 10:32:56;;;;;;;5.68;2.75;;;19.10;63.30;;;;;;6161276;28;20062;-75
2023/05/04 10:35:57;;;;;;;3.25;2.20;;;19.00;61.70;;;;;;6146270;28;20052;-73
2023/05/04 10:39:01;;;;;;;6.45;3.10;;;19.10;63.10;;;;;;6153295;28;20456;-76
2023/05/04 10:42:04;;;;;;;;;;;19.20;64.00;;;;;;6136696;28;20417;-77
2023/05/04 10:45:08;;;;;;;4.65;2.70;;;19.30;63.20;;;;;;6129873;29;19933;-75
2023/05/04 10:48:10;;;;;;;5.28;2.65;;;19.30;61.40;;;;;;6144020;29;20134;-76
2023/05/04 10:51:19;;;;;;;4.35;2.65;;;19.50;62.20;;;;;;6153402;28;20075;-75
2023/05/04 10:54:22;;;;;;;4.30;2.47;;;19.50;63.10;;;;;;6154813;28;20055;-77
2023/05/04 10:57:26;;;;;;;5.72;2.83;;;19.60;61.70;;;;;;6155447;28;20421;-74
2023/05/04 11:00:37;;;;;;;5.00;2.67;;;19.50;60.70;;;;;;6147733;28;20043;-74
2023/05/04 11:03:40;;;;;;;5.05;2.78;;;19.60;61.40;;;;;;6131858;29;20051;-76
2023/05/04 11:06:43;;;;;;;6.07;4.00;;;19.70;60.90;;;;;;6131105;29;20055;-76
2023/05/04 11:09:46;;;;;;;7.00;4.53;;;19.70;61.50;;;;;;6135229;29;20481;-73
2023/05/04 11:12:48;;;;;;;5.75;2.70;;;19.70;60.80;;;;;;6151720;28;20505;-76
2023/05/04 11:15:51;;;;;;;6.28;2.60;;;19.80;62.90;;;;;;6155057;28;20047;-76
2023/05/04 11:18:54;;;;;;;4.70;2.53;;;19.90;60.30;;;;;;6155026;28;20550;-74
2023/05/04 11:21:56;;;;;;;4.28;2.65;;;20.00;59.30;;;;;;6154712;28;20051;-75
2023/05/04 11:24:59;;;;;;;4.85;2.97;;;20.10;59.70;;;;;;6154790;28;20059;-75
2023/05/04 11:28:01;;;;;;;4.97;2.58;;;20.20;59.00;;;;;;6154484;28;20624;-75
2023/05/04 11:31:13;;;;;;;4.45;2.72;;;20.20;59.30;;;;;;6153532;28;20066;-76
2023/05/04 11:34:20;;;;;;;5.90;3.80;;;20.30;59.70;;;;;;6154373;28;20453;-75
2023/05/04 11:37:23;;;;;;;6.38;3.80;;;20.40;58.20;;;;;;6154517;28;20556;-76
2023/05/04 11:40:27;;;;;;;5.45;3.15;;;20.30;57.70;;;;;;6154526;28;20055;-76
2023/05/04 11:43:29;;;;;;;5.20;2.65;;;20.40;59.80;;;;;;6154103;28;20390;-76
2023/05/04 11:46:33;;;;;;;4.55;2.75;;;20.70;60.60;;;;;;6154016;28;20047;-75
2023/05/04 11:49:35;;;;;;;5.40;2.50;;;20.60;59.20;;;;;;6154094;28;20249;-74
2023/05/04 11:52:39;;;;;;;5.40;2.80;;;20.90;60.80;;;;;;6153804;28;20918;-75
2023/05/04 11:55:42;;;;;;;4.78;3.10;;;21.00;59.70;;;;;;6153933;28;20061;-74
2023/05/04 11:58:44;;;;;;;4.35;2.60;;;21.00;56.50;;;;;;6153859;28;20051;-76
2023/05/04 12:01:46;;;;;;;4.60;2.58;;;21.10;59.20;;;;;;6153999;28;20047;-75
2023/05/04 12:04:48;;;;;;;5.75;3.10;;;21.20;58.00;;;;;;6153844;28;20047;-74
2023/05/04 12:07:50;;;;;;;4.10;2.70;;;21.30;59.30;;;;;;6153838;28;20058;-76
2023/05/04 12:11:09;;;;;;;4.78;2.70;;;21.40;57.70;;;;;;6153596;28;20520;-74
2023/05/04 12:14:12;;;;;;;4.13;2.75;;;21.40;57.50;;;;;;6154048;28;20062;-75
2023/05/04 12:17:14;;;;;;;;;;;21.60;58.80;;;;;;6155585;28;20051;-77
2023/05/04 12:20:24;;;;;;;4.90;3.13;;;21.70;58.80;;;;;;6160412;28;19977;-76
2023/05/04 12:23:25;;;;;;;5.55;3.20;;;21.80;58.50;;;;;;6161138;28;20432;-77
2023/05/04 12:26:30;;;;;;;3.80;2.45;;;21.90;56.10;;;;;;6164143;28;20053;-77
2023/05/04 12:29:31;;;;;;;5.03;3.20;;;22.00;54.40;;;;;;6173043;28;20078;-75
2023/05/04 12:32:33;;;;;;;5.13;3.03;;;22.10;55.60;;;;;;6158380;28;20055;-76
2023/05/04 12:35:35;;;;;;;4.13;2.60;;;22.30;56.20;;;;;;6181963;28;20051;-76
2023/05/04 12:38:37;;;;;;;5.28;3.20;;;22.50;57.80;;;;;;6177270;28;20125;-74
2023/05/04 12:41:40;;;;;;;7.88;3.00;;;22.60;55.10;;;;;;6177563;28;20111;-74
2023/05/04 12:44:42;;;;;;;5.25;3.00;;;22.70;55.10;;;;;;6178678;28;20485;-74
2023/05/04 12:47:44;;;;;;;6.10;3.92;;;22.80;55.00;;;;;;6162389;28;20051;-76
2023/05/04 12:50:48;;;;;;;5.07;3.17;;;23.10;56.30;;;;;;6152308;28;20394;-76
2023/05/04 12:53:50;;;;;;;5.72;2.97;;;23.00;53.30;;;;;;6152288;28;20481;-76
2023/05/04 12:56:53;;;;;;;5.65;3.25;;;23.20;54.50;;;;;;6152281;28;20070;-75
2023/05/04 12:59:55;;;;;;;6.05;3.78;;;23.20;53.60;;;;;;6152604;28;20054;-76
2023/05/04 13:02:58;;;;;;;5.03;3.30;;;23.20;53.70;;;;;;6133812;28;20146;-77
2023/05/04 13:06:00;;;;;;;4.97;3.13;;;23.40;55.20;;;;;;6125437;29;20531;-76
2023/05/04 13:09:04;;;;;;;5.20;3.10;;;23.60;55.40;;;;;;6125471;29;20051;-75
2023/05/04 13:12:07;;;;;;;5.88;2.53;;;23.80;55.30;;;;;;6125257;29;20051;-75
2023/05/04 13:15:10;;;;;;;5.05;2.92;;;24.10;55.00;;;;;;6124920;29;20058;-76
2023/05/04 13:18:12;;;;;;;4.57;2.85;;;24.20;56.10;;;;;;6126229;29;20100;-76
2023/05/04 13:21:14;;;;;;;5.38;2.78;;;24.40;55.90;;;;;;6123090;29;20706;-73
2023/05/04 13:24:16;;;;;;;5.38;2.92;;;24.40;54.70;;;;;;6125581;29;20166;-73
2023/05/04 13:27:19;;;;;;;5.90;3.35;;;24.50;54.20;;;;;;6126382;29;20531;-75
2023/05/04 13:30:21;;;;;;;;;;;24.50;53.10;;;;;;6125719;29;20048;-76
2023/05/04 13:33:23;;;;;;;6.23;3.00;;;24.40;53.30;;;;;;6146903;29;19926;-76
2023/05/04 13:36:25;;;;;;;4.75;2.72;;;24.70;52.90;;;;;;6149618;28;20330;-74
2023/05/04 13:39:27;;;;;;;4.57;2.90;;;25.00;53.60;;;;;;6147677;28;20481;-76
2023/05/04 13:42:30;;;;;;;4.28;2.67;;;25.20;53.10;;;;;;6148655;28;20140;-76
2023/05/04 13:45:32;;;;;;;;;;;25.40;53.70;;;;;;6148877;28;20101;-76
2023/05/04 13:48:34;;;;;;;5.97;2.97;;;25.60;53.60;;;;;;6148092;28;20280;-74
2023/05/04 13:51:37;;;;;;;6.60;3.08;;;25.70;50.80;;;;;;6147888;28;20632;-76
2023/05/04 13:54:39;;;;;;;;;;;25.60;52.00;;;;;;6148245;28;20055;-75
2023/05/04 13:57:42;;;;;;;5.05;2.30;;;25.80;51.90;;;;;;6148007;28;20292;-77
2023/05/04 14:00:44;;;;;;;4.95;2.60;;;26.10;52.00;;;;;;6147350;28;20058;-75
2023/05/04 14:03:46;;;;;;;7.68;2.63;;;26.20;50.10;;;;;;6148002;28;20054;-75
2023/05/04 14:06:48;;;;;;;5.65;2.40;;;26.40;51.00;;;;;;6148263;28;20507;-73
2023/05/04 14:09:51;;;;;;;4.35;2.67;;;26.80;50.40;;;;;;6148244;28;20102;-76
2023/05/04 14:12:54;;;;;;;5.40;2.90;;;27.10;50.20;;;;;;6148041;28;20141;-75
2023/05/04 14:15:57;;;;;;;7.00;3.35;;;27.40;50.40;;;;;;6147689;28;20063;-76
2023/05/04 14:18:59;;;;;;;5.10;2.30;;;27.30;47.70;;;;;;6148534;28;20058;-75
2023/05/04 14:22:01;;;;;;;12.68;5.13;;;27.50;49.80;;;;;;6146094;28;20130;-74
2023/05/04 14:25:04;;;;;;;4.78;2.47;;;27.50;49.40;;;;;;6148220;28;20051;-74
2023/05/04 14:28:07;;;;;;;;;;;27.90;48.30;;;;;;6144949;28;20056;-75
2023/05/04 14:31:09;;;;;;;5.97;2.92;;;28.00;48.40;;;;;;6124180;29;20395;-76
2023/05/04 14:34:11;;;;;;;4.80;2.78;;;28.30;48.80;;;;;;6123875;29;20056;-76
2023/05/04 14:37:13;;;;;;;6.10;2.95;;;28.50;48.00;;;;;;6125132;29;20497;-76
2023/05/04 14:40:15;;;;;;;5.75;2.42;;;28.80;47.40;;;;;;6124296;29;20044;-76
2023/05/04 14:43:18;;;;;;;5.05;2.47;;;28.80;45.30;;;;;;6124282;29;20059;-76
2023/05/04 14:46:20;;;;;;;5.63;2.40;;;28.50;47.20;;;;;;6136306;29;20048;-75
2023/05/04 14:49:23;;;;;;;4.60;2.40;;;28.70;47.10;;;;;;6148231;28;20054;-75
2023/05/04 14:52:25;;;;;;;3.55;2.08;;;29.00;46.50;;;;;;6148046;28;20047;-74
2023/05/04 14:55:27;;;;;;;4.22;2.13;;;29.20;48.90;;;;;;6144828;28;20062;-77
2023/05/04 14:58:30;;;;;;;4.13;1.80;;;29.60;45.90;;;;;;6146048;28;20058;-75
2023/05/04 15:01:32;;;;;;;3.38;2.17;;;29.90;45.40;;;;;;6148010;28;20051;-76
2023/05/04 15:04:34;;;;;;;4.70;2.10;;;30.30;45.00;;;;;;6147648;28;20048;-76
2023/05/04 15:07:36;;;;;;;4.00;1.95;;;30.50;43.80;;;;;;6152089;28;20078;-74
2023/05/04 15:10:38;;;;;;;4.37;1.90;;;30.60;45.00;;;;;;6158564;28;20048;-74
2023/05/04 15:13:44;;;;;;;3.22;1.90;;;31.30;42.90;;;;;;6151958;28;20055;-75
2023/05/04 15:16:46;;;;;;;3.92;1.98;;;32.10;43.30;;;;;;6149599;28;20048;-74
2023/05/04 15:19:47;;;;;;;3.60;1.98;;;32.70;41.50;;;;;;6151720;28;20051;-76
2023/05/04 15:22:50;;;;;;;3.75;2.15;;;33.70;41.50;;;;;;6151791;28;20058;-77
2023/05/04 15:25:52;;;;;;;3.75;1.95;;;34.80;38.60;;;;;;6157745;28;20193;-76
2023/05/04 15:28:55;;;;;;;;;;;35.50;38.20;;;;;;6158743;28;20055;-76
2023/05/04 15:31:57;;;;;;;4.45;1.70;;;35.90;36.80;;;;;;6148428;29;19926;-77
2023/05/04 15:34:59;;;;;;;;;;;35.80;37.30;;;;;;6153046;28;20058;-73
2023/05/04 15:38:02;;;;;;;4.00;1.50;;;36.20;36.70;;;;;;6149589;29;19922;-75
2023/05/04 15:41:04;;;;;;;3.63;1.60;;;36.20;36.80;;;;;;6148999;28;20051;-77
2023/05/04 15:44:07;;;;;;;4.70;1.60;;;36.40;36.80;;;;;;6145639;29;20052;-75
2023/05/04 15:47:11;;;;;;;4.57;1.60;;;36.60;36.30;;;;;;6131921;29;20059;-76
2023/05/04 15:50:13;;;;;;;3.33;1.35;;;36.20;36.50;;;;;;6150243;28;20051;-75
2023/05/04 15:53:15;;;;;;;3.72;1.70;;;36.00;36.50;;;;;;6150807;28;20051;-75
2023/05/04 15:56:16;;;;;;;;;;;35.90;36.60;;;;;;6149513;28;20062;-76
2023/05/04 15:59:20;;;;;;;3.58;1.52;;;35.80;36.40;;;;;;6151110;29;19927;-77
2023/05/04 16:02:22;;;;;;;2.58;1.58;;;35.70;35.50;;;;;;6150361;28;20077;-76
2023/05/04 16:05:24;;;;;;;;;;;35.80;35.90;;;;;;6139721;28;20059;-76
2023/05/04 16:08:27;;;;;;;3.08;1.75;;;35.60;35.60;;;;;;6126721;29;19926;-75
2023/05/04 16:11:29;;;;;;;;;;;35.10;35.30;;;;;;6147181;28;20058;-75
2023/05/04 16:14:32;;;;;;;5.40;1.73;;;35.00;35.70;;;;;;6140906;28;20376;-76
2023/05/04 16:17:34;;;;;;;3.22;1.70;;;34.60;36.10;;;;;;6147807;28;20480;-79
2023/05/04 16:20:36;;;;;;;5.35;2.00;;;35.00;36.50;;;;;;6145577;28;20058;-78
2023/05/04 16:23:38;;;;;;;3.95;1.63;;;35.00;36.20;;;;;;6139002;28;20054;-78
2023/05/04 16:26:40;;;;;;;4.38;1.73;;;34.40;36.00;;;;;;6146659;28;20043;-78
2023/05/04 16:29:43;;;;;;;2.80;1.70;;;34.30;37.60;;;;;;6147260;28;20050;-77
2023/05/04 16:32:45;;;;;;;4.03;1.90;;;33.80;36.80;;;;;;6146906;28;20097;-77
2023/05/04 16:35:47;;;;;;;3.95;1.70;;;33.20;37.10;;;;;;6147067;28;20059;-77
2023/05/04 16:38:49;;;;;;;3.30;1.70;;;32.60;37.70;;;;;;6144677;28;20043;-77
2023/05/04 16:41:50;;;;;;;3.85;1.80;;;32.50;37.90;;;;;;6145038;28;20145;-78
2023/05/04 16:44:54;;;;;;;6.50;2.03;;;32.30;38.10;;;;;;6150342;28;20051;-77
2023/05/04 16:47:56;;;;;;;3.58;2.00;;;32.00;38.30;;;;;;6146527;28;20151;-78
2023/05/04 16:50:58;;;;;;;4.10;1.88;;;32.20;38.80;;;;;;6145884;29;20054;-77
2023/05/04 16:54:00;;;;;;;3.23;1.80;;;32.20;39.20;;;;;;6147247;28;20413;-79
2023/05/04 16:57:01;;;;;;;5.30;2.30;;;32.20;39.10;;;;;;6147911;28;20873;-77
2023/05/04 17:00:07;;;;;;;4.55;2.55;;;31.80;38.10;;;;;;6145662;29;20047;-79
2023/05/04 17:03:09;;;;;;;4.07;2.13;;;31.60;39.50;;;;;;6136560;28;20047;-79
2023/05/04 17:06:11;;;;;;;3.70;1.98;;;31.70;39.90;;;;;;6146517;28;20055;-78
2023/05/04 17:09:13;;;;;;;4.13;2.30;;;31.20;40.00;;;;;;6125534;29;20058;-77
2023/05/04 17:12:15;;;;;;;4.60;2.50;;;31.10;40.50;;;;;;6139129;28;20050;-76
2023/05/04 17:15:18;;;;;;;4.15;2.03;;;30.60;40.60;;;;;;6130235;29;20064;-78
2023/05/04 17:18:20;;;;;;;5.47;2.17;;;30.50;41.30;;;;;;6142570;29;20044;-78
2023/05/04 17:21:22;;;;;;;4.20;2.00;;;30.00;41.30;;;;;;6138101;28;20080;-78
2023/05/04 17:24:24;;;;;;;4.03;2.25;;;30.00;42.30;;;;;;6138778;29;20047;-78
2023/05/04 17:27:26;;;;;;;4.63;2.70;;;29.80;41.70;;;;;;6148245;28;20055;-77
2023/05/04 17:30:29;;;;;;;3.63;2.13;;;29.50;41.50;;;;;;6145463;28;20512;-77
2023/05/04 17:33:31;;;;;;;5.10;2.47;;;29.50;43.00;;;;;;6150400;28;20461;-77
2023/05/04 17:36:33;;;;;;;4.03;2.20;;;29.50;42.50;;;;;;6146391;28;20490;-76
2023/05/04 17:39:35;;;;;;;4.97;2.17;;;29.40;42.80;;;;;;6135923;29;20649;-76
2023/05/04 17:42:37;;;;;;;3.70;1.97;;;29.30;43.30;;;;;;6146444;28;20039;-78
2023/05/04 17:45:40;;;;;;;4.60;2.40;;;29.30;43.40;;;;;;6148632;28;20484;-80
2023/05/04 17:48:43;;;;;;;5.03;2.10;;;29.50;43.20;;;;;;6149469;28;20055;-77
2023/05/04 17:51:47;;;;;;;4.97;2.17;;;29.50;43.90;;;;;;6146999;28;20206;-78
2023/05/04 17:54:49;;;;;;;5.07;2.00;;;29.60;43.60;;;;;;6147786;28;20055;-79
2023/05/04 17:57:52;;;;;;;6.70;2.40;;;29.30;44.60;;;;;;6143947;28;20070;-78
2023/05/04 18:00:55;;;;;;;;;;;29.40;45.30;;;;;;6145614;29;20058;-78
2023/05/04 18:03:57;;;;;;;4.75;2.22;;;29.20;44.40;;;;;;6145550;29;19930;-78
2023/05/04 18:06:59;;;;;;;4.68;2.28;;;28.90;45.10;;;;;;6147390;28;20062;-80
2023/05/04 18:10:01;;;;;;;6.82;2.25;;;28.50;45.70;;;;;;6145684;28;20055;-78
2023/05/04 18:13:03;;;;;;;4.05;2.47;;;28.10;46.00;;;;;;6147319;28;20489;-78
2023/05/04 18:16:07;;;;;;;5.25;1.98;;;27.70;46.80;;;;;;6146674;28;20059;-78
2023/05/04 18:19:09;;;;;;;6.85;2.53;;;27.40;48.30;;;;;;6126298;29;20417;-76
2023/05/04 18:22:10;;;;;;;6.35;2.47;;;27.00;48.70;;;;;;6121683;29;20051;-77
2023/05/04 18:25:14;;;;;;;5.05;2.45;;;26.70;48.70;;;;;;6136967;29;20056;-77
2023/05/04 18:28:16;;;;;;;4.45;2.97;;;26.30;50.00;;;;;;6139195;28;20086;-77
2023/05/04 18:31:19;;;;;;;6.07;2.60;;;26.20;50.70;;;;;;6132259;28;20065;-78
2023/05/04 18:34:21;;;;;;;4.72;2.75;;;26.00;50.60;;;;;;6143802;28;20058;-80
2023/05/04 18:37:23;;;;;;;4.72;2.80;;;25.80;51.90;;;;;;6143562;28;20051;-77
2023/05/04 18:40:25;;;;;;;6.32;3.47;;;25.50;51.60;;;;;;6142568;28;20126;-76
2023/05/04 18:43:27;;;;;;;7.07;3.20;;;25.40;52.10;;;;;;6148277;28;20059;-78
2023/05/04 18:46:31;;;;;;;5.18;2.83;;;25.10;54.20;;;;;;6142415;28;20055;-78
2023/05/04 18:49:33;;;;;;;5.85;2.90;;;24.90;54.10;;;;;;6143542;29;20043;-79
2023/05/04 18:52:35;;;;;;;6.25;2.80;;;24.80;55.20;;;;;;6138723;28;20107;-78
2023/05/04 18:55:36;;;;;;;6.05;2.78;;;24.60;56.30;;;;;;6124828;29;20066;-79
2023/05/04 18:58:39;;;;;;;5.32;2.80;;;24.40;56.70;;;;;;6128813;29;20051;-79
2023/05/04 19:01:42;;;;;;;5.90;2.97;;;24.10;56.80;;;;;;6138587;28;20047;-78
2023/05/04 19:04:45;;;;;;;5.80;3.13;;;23.80;56.80;;;;;;6148304;28;20493;-78
2023/05/04 19:07:47;;;;;;;5.93;3.80;;;23.70;55.90;;;;;;6146964;28;20497;-78
2023/05/04 19:10:49;;;;;;;6.15;3.70;;;23.60;55.40;;;;;;6147303;28;20043;-77
2023/05/04 19:13:52;;;;;;;8.50;4.30;;;23.40;56.60;;;;;;6146630;28;20425;-77
2023/05/04 19:16:56;;;;;;;5.18;3.92;;;23.20;56.40;;;;;;6147822;28;20322;-77
2023/05/04 19:19:58;;;;;;;10.60;4.22;;;23.10;56.20;;;;;;6148148;28;20437;-76
2023/05/04 19:22:59;;;;;;;8.65;4.00;;;23.00;57.30;;;;;;6143592;28;20047;-76
2023/05/04 19:26:02;;;;;;;5.20;3.60;;;22.90;59.00;;;;;;6145713;28;20058;-76
2023/05/04 19:29:04;;;;;;;5.93;4.03;;;22.80;58.50;;;;;;6147180;28;20055;-76
2023/05/04 19:32:08;;;;;;;6.68;3.58;;;22.70;59.20;;;;;;6146547;28;20141;-79
2023/05/04 19:35:10;;;;;;;;;;;22.60;60.60;;;;;;6129518;28;20047;-78
2023/05/04 19:38:11;;;;;;;7.30;4.20;;;22.50;59.10;;;;;;6141295;29;19926;-77
2023/05/04 19:41:13;;;;;;;7.28;3.63;;;22.50;58.10;;;;;;6147514;28;20849;-78
2023/05/04 19:44:15;;;;;;;7.00;3.97;;;22.40;60.40;;;;;;6145127;28;20058;-79
2023/05/04 19:47:19;;;;;;;5.68;3.80;;;22.30;60.00;;;;;;6150353;28;20055;-76
2023/05/04 19:50:21;;;;;;;7.10;4.35;;;22.20;59.20;;;;;;6145837;28;20055;-79
2023/05/04 19:53:23;;;;;;;7.28;4.70;;;22.10;59.80;;;;;;6143751;28;20050;-77
2023/05/04 19:56:25;;;;;;;9.65;4.40;;;22.00;59.10;;;;;;6146427;28;20416;-77
2023/05/04 19:59:26;;;;;;;9.52;4.38;;;21.90;59.30;;;;;;6148511;28;20103;-77
2023/05/04 20:02:31;;;;;;;7.78;4.53;;;21.90;59.50;;;;;;6141587;28;20055;-78
2023/05/04 20:05:33;;;;;;;7.05;4.60;;;21.90;59.40;;;;;;6148198;28;20051;-75
2023/05/04 20:08:34;;;;;;;7.65;4.43;;;21.80;61.50;;;;;;6147749;28;20051;-78
2023/05/04 20:11:37;;;;;;;5.53;3.88;;;21.70;60.90;;;;;;6149011;28;20059;-77
2023/05/04 20:14:39;;;;;;;7.18;4.38;;;21.60;62.80;;;;;;6148886;28;20055;-75
2023/05/04 20:17:43;;;;;;;5.85;3.88;;;21.50;61.30;;;;;;6149499;28;20420;-76
2023/05/04 20:20:44;;;;;;;7.47;4.22;;;21.50;62.80;;;;;;6149736;28;20062;-74
2023/05/04 20:23:46;;;;;;;9.02;4.45;;;21.30;62.90;;;;;;6145434;28;20050;-76
2023/05/04 20:26:48;;;;;;;7.15;4.35;;;21.10;61.70;;;;;;6147258;28;20054;-74
2023/05/04 20:29:50;;;;;;;6.93;4.35;;;21.10;62.90;;;;;;6158481;28;20507;-76
2023/05/04 20:32:54;;;;;;;7.40;4.10;;;21.10;61.90;;;;;;6160052;28;20564;-76
2023/05/04 20:35:55;;;;;;;;;;;21.00;61.40;;;;;;6148947;28;20051;-76
2023/05/04 20:38:58;;;;;;;5.80;3.72;;;21.00;63.60;;;;;;6147869;29;20368;-76
2023/05/04 20:42:00;;;;;;;9.35;4.25;;;20.90;62.40;;;;;;6148131;28;20094;-75
2023/05/04 20:45:02;;;;;;;10.63;5.53;;;20.90;62.10;;;;;;6137993;28;20052;-77
2023/05/04 20:48:06;;;;;;;6.82;4.63;;;20.50;62.10;;;;;;6125227;29;20098;-75
2023/05/04 20:51:08;;;;;;;8.48;4.72;;;20.50;62.50;;;;;;6129750;29;20570;-76
2023/05/04 20:54:10;;;;;;;8.90;4.47;;;20.40;61.70;;;;;;6146082;28;20055;-76
2023/05/04 20:57:12;;;;;;;6.07;4.47;;;20.20;62.00;;;;;;6148955;28;20088;-75
2023/05/04 21:00:15;;;;;;;6.68;4.43;;;20.30;62.10;;;;;;6149040;28;20431;-75
2023/05/04 21:03:18;;;;;;;6.72;3.95;;;20.20;62.10;;;;;;6147902;28;20074;-75
2023/05/04 21:06:20;;;;;;;8.55;4.43;;;20.30;62.50;;;;;;6149620;28;20047;-75
2023/05/04 21:09:22;;;;;;;8.38;4.05;;;20.40;63.20;;;;;;6148551;28;20102;-77
2023/05/04 21:12:24;;;;;;;6.82;3.78;;;20.50;62.10;;;;;;6144993;28;20424;-76
2023/05/04 21:15:26;;;;;;;7.72;3.92;;;20.50;62.70;;;;;;6147897;28;20094;-75
2023/05/04 21:18:29;;;;;;;7.60;4.15;;;20.30;63.70;;;;;;6147916;28;20054;-77
2023/05/04 21:21:33;;;;;;;8.18;3.95;;;20.10;63.40;;;;;;6144887;28;20051;-75
2023/05/04 21:24:35;;;;;;;7.38;4.25;;;20.20;63.70;;;;;;6154370;28;20049;-76
2023/05/04 21:27:37;;;;;;;7.68;4.32;;;20.00;63.80;;;;;;6161742;28;20190;-76
2023/05/04 21:30:42;;;;;;;7.13;4.07;;;20.00;64.00;;;;;;6158323;28;20051;-74
2023/05/04 21:33:45;;;;;;;8.13;4.20;;;20.10;64.70;;;;;;6150445;28;20489;-75
2023/05/04 21:36:47;;;;;;;7.63;4.30;;;20.10;64.10;;;;;;6150939;29;20066;-75
2023/05/04 21:39:54;;;;;;;7.47;4.50;;;20.10;63.90;;;;;;6151118;28;20067;-74
2023/05/04 21:42:56;;;;;;;7.78;4.00;;;20.20;64.90;;;;;;6152400;28;20248;-74
2023/05/04 21:45:58;;;;;;;8.15;4.35;;;20.10;65.20;;;;;;6152879;28;20056;-76
2023/05/04 21:49:01;;;;;;;7.93;3.83;;;20.10;65.00;;;;;;6162597;28;20054;-76
2023/05/04 21:52:03;;;;;;;7.47;4.10;;;20.00;68.00;;;;;;6161372;28;20123;-75
2023/05/04 21:55:06;;;;;;;6.85;3.90;;;19.90;68.30;;;;;;6149770;29;20043;-76
2023/05/04 21:58:08;;;;;;;6.53;4.20;;;19.80;68.40;;;;;;6152279;28;20055;-77
